Madison, WI (53716)

1:01 PM CDT on August 30, 2015 (GMT -0500)
Glendale | | Change Station
CLOSE
Current Station
Personal Weather Station
Location: Madison, WI
Elevation: 912 ft
Nearby Weather Stations

Elev 912 ft 43.06 °N, 89.31 °W | Updated 1 minute ago

Mostly Cloudy
Mostly Cloudy
75.7 °F
Feels Like 77 °F
N
3.1
Wind Variable Wind from SW
Gusts 6.9 mph

Today
High -- | Low -- °F
--% Chance of Precip.
Yesterday
High -- | Low -- °F
Precip. -- in
6:19 AM 7:35 PM
Full, 99% visible
Pressure 30.07 in
Visibility 10.0 miles
Clouds Mostly Cloudy 2000 ft
Heat Index 77 °F
Dew Point 65 °F
Humidity 69%
Rainfall 0.00 in
Snow Depth Not available.
UV 5 out of 12
Pollen 9.50 out of 12
Air Quality Not available.
Flu Activity Not available.
METAR KMSN 301753Z VRB05KT 10SM BKN020 21/16 A3007 RMK AO2 SLP181 T02110161 10217 20161 58005
Pressure 30.07 in
Visibility 10.0 miles
Clouds Mostly Cloudy 2000 ft
Heat Index 77 °F
Dew Point 65 °F
Humidity 69%
Rainfall 0.00 in
Snow Depth Not available.
UV 5 out of 12
Pollen 9.50 out of 12
Air Quality Not available.
Flu Activity Not available.
METAR KMSN 301753Z VRB05KT 10SM BKN020 21/16 A3007 RMK AO2 SLP181 T02110161 10217 20161 58005

10-Day Weather Forecast

×

Almanac

Astronomy

Aug. 30, 2015 Rise Set
Actual Time
Civil Twilight
Nautical Twilight
Astronomical Twilight
Moon
Length of Visible Light
Length of Day
Tomorrow will be .
, % of the Moon is Illuminated

Today's Extremes

State Highs State Lows

Community

WunderPhotos

Upload Photos

1,851,021 photos uploaded!

WunderBlogs® & News

Nearby

Air Quality

  Air Quality AQ Index Pollutant
Not available.

Snow Depth

Station Depth Elevation

Earthquake Activity

City Distance Mag. Time & Date
Minimum magnitude displayed is 2.5.

Coastal Water Temperatures

Place Temperature

Stations

Nearby Weather Stations

Station Location Temp. Windchill Dew Point Humidity Wind Precip. Elev Updated Type